sensor_id;sensor_type;location;lat;lon;timestamp;temperature;humidity
84012;DHT22;74081;52.490;13.428;2024-02-23T00:01:05;10.10;84.80
84012;DHT22;74081;52.490;13.428;2024-02-23T00:03:33;10.10;84.80
84012;DHT22;74081;52.490;13.428;2024-02-23T00:06:01;10.10;84.80
84012;DHT22;74081;52.490;13.428;2024-02-23T00:08:28;10.10;84.80
84012;DHT22;74081;52.490;13.428;2024-02-23T00:10:54;10.00;84.80
84012;DHT22;74081;52.490;13.428;2024-02-23T00:13:23;10.00;84.80
84012;DHT22;74081;52.490;13.428;2024-02-23T00:15:50;10.00;84.80
84012;DHT22;74081;52.490;13.428;2024-02-23T00:18:18;10.10;84.80
84012;DHT22;74081;52.490;13.428;2024-02-23T00:20:46;10.20;84.80
84012;DHT22;74081;52.490;13.428;2024-02-23T00:23:12;10.20;84.80
84012;DHT22;74081;52.490;13.428;2024-02-23T00:25:39;10.30;84.80
84012;DHT22;74081;52.490;13.428;2024-02-23T00:28:06;10.30;84.80
84012;DHT22;74081;52.490;13.428;2024-02-23T00:30:33;10.30;84.80
84012;DHT22;74081;52.490;13.428;2024-02-23T00:32:59;10.40;84.80
84012;DHT22;74081;52.490;13.428;2024-02-23T00:35:26;10.40;84.80
84012;DHT22;74081;52.490;13.428;2024-02-23T00:37:53;10.40;84.80
84012;DHT22;74081;52.490;13.428;2024-02-23T00:40:20;10.30;84.80
84012;DHT22;74081;52.490;13.428;2024-02-23T00:42:46;10.20;84.80
84012;DHT22;74081;52.490;13.428;2024-02-23T00:45:13;10.10;84.80
84012;DHT22;74081;52.490;13.428;2024-02-23T00:47:40;10.10;84.80
84012;DHT22;74081;52.490;13.428;2024-02-23T00:50:07;10.00;84.80
84012;DHT22;74081;52.490;13.428;2024-02-23T00:52:33;10.00;84.80
84012;DHT22;74081;52.490;13.428;2024-02-23T00:55:00;10.00;84.80
84012;DHT22;74081;52.490;13.428;2024-02-23T00:57:27;10.00;84.80
84012;DHT22;74081;52.490;13.428;2024-02-23T00:59:56;10.00;84.80
84012;DHT22;74081;52.490;13.428;2024-02-23T01:02:23;10.10;84.80
84012;DHT22;74081;52.490;13.428;2024-02-23T01:04:50;10.10;84.80
84012;DHT22;74081;52.490;13.428;2024-02-23T01:07:16;10.20;84.80
84012;DHT22;74081;52.490;13.428;2024-02-23T01:09:43;10.20;84.80
84012;DHT22;74081;52.490;13.428;2024-02-23T01:12:10;10.20;84.80
84012;DHT22;74081;52.490;13.428;2024-02-23T01:14:37;10.20;84.80
84012;DHT22;74081;52.490;13.428;2024-02-23T01:17:03;10.20;84.80
84012;DHT22;74081;52.490;13.428;2024-02-23T01:19:30;10.20;84.80
84012;DHT22;74081;52.490;13.428;2024-02-23T01:21:57;10.20;84.80
84012;DHT22;74081;52.490;13.428;2024-02-23T01:24:27;10.20;84.80
84012;DHT22;74081;52.490;13.428;2024-02-23T01:26:55;10.20;84.80
84012;DHT22;74081;52.490;13.428;2024-02-23T01:29:22;10.20;84.80
84012;DHT22;74081;52.490;13.428;2024-02-23T01:31:49;10.10;84.80
84012;DHT22;74081;52.490;13.428;2024-02-23T01:34:16;10.10;84.80
84012;DHT22;74081;52.490;13.428;2024-02-23T01:36:43;10.10;84.80
84012;DHT22;74081;52.490;13.428;2024-02-23T01:39:10;10.10;84.80
84012;DHT22;74081;52.490;13.428;2024-02-23T01:41:37;10.20;84.80
84012;DHT22;74081;52.490;13.428;2024-02-23T01:44:04;10.30;84.80
84012;DHT22;74081;52.490;13.428;2024-02-23T01:46:31;10.20;84.80
84012;DHT22;74081;52.490;13.428;2024-02-23T01:48:58;10.30;84.80
84012;DHT22;74081;52.490;13.428;2024-02-23T01:51:25;10.40;84.80
84012;DHT22;74081;52.490;13.428;2024-02-23T01:53:52;10.40;84.80
84012;DHT22;74081;52.490;13.428;2024-02-23T01:56:19;10.40;84.80
84012;DHT22;74081;52.490;13.428;2024-02-23T01:58:46;10.40;84.80
84012;DHT22;74081;52.490;13.428;2024-02-23T02:01:13;10.40;84.80
84012;DHT22;74081;52.490;13.428;2024-02-23T02:03:40;10.40;84.80
84012;DHT22;74081;52.490;13.428;2024-02-23T02:06:07;10.40;84.80
84012;DHT22;74081;52.490;13.428;2024-02-23T02:08:34;10.40;84.80
84012;DHT22;74081;52.490;13.428;2024-02-23T02:11:01;10.30;84.80
84012;DHT22;74081;52.490;13.428;2024-02-23T02:13:28;10.30;84.80
84012;DHT22;74081;52.490;13.428;2024-02-23T02:15:55;10.30;84.80
84012;DHT22;74081;52.490;13.428;2024-02-23T02:18:22;10.30;84.80
84012;DHT22;74081;52.490;13.428;2024-02-23T02:20:52;10.20;84.80
84012;DHT22;74081;52.490;13.428;2024-02-23T02:23:20;10.20;84.80
84012;DHT22;74081;52.490;13.428;2024-02-23T02:25:53;10.20;84.80
84012;DHT22;74081;52.490;13.428;2024-02-23T02:28:20;10.20;84.80
84012;DHT22;74081;52.490;13.428;2024-02-23T02:30:48;10.20;84.80
84012;DHT22;74081;52.490;13.428;2024-02-23T02:33:15;10.20;84.80
84012;DHT22;74081;52.490;13.428;2024-02-23T02:35:41;10.20;84.80
84012;DHT22;74081;52.490;13.428;2024-02-23T02:38:09;10.10;84.80
84012;DHT22;74081;52.490;13.428;2024-02-23T02:40:36;10.10;84.80
84012;DHT22;74081;52.490;13.428;2024-02-23T02:43:03;10.00;84.80
84012;DHT22;74081;52.490;13.428;2024-02-23T02:45:30;10.10;84.80
84012;DHT22;74081;52.490;13.428;2024-02-23T02:47:57;10.00;84.80
84012;DHT22;74081;52.490;13.428;2024-02-23T02:50:23;9.90;84.80
84012;DHT22;74081;52.490;13.428;2024-02-23T02:52:50;9.90;84.80
84012;DHT22;74081;52.490;13.428;2024-02-23T02:55:17;9.90;84.80
84012;DHT22;74081;52.490;13.428;2024-02-23T02:57:44;9.80;84.80
84012;DHT22;74081;52.490;13.428;2024-02-23T03:00:11;9.80;84.80
84012;DHT22;74081;52.490;13.428;2024-02-23T03:02:38;9.80;84.80
84012;DHT22;74081;52.490;13.428;2024-02-23T03:05:05;9.80;84.80
84012;DHT22;74081;52.490;13.428;2024-02-23T03:07:32;9.80;84.80
84012;DHT22;74081;52.490;13.428;2024-02-23T03:09:59;9.80;84.80
84012;DHT22;74081;52.490;13.428;2024-02-23T03:12:25;9.70;84.80
84012;DHT22;74081;52.490;13.428;2024-02-23T03:14:52;9.70;84.80
84012;DHT22;74081;52.490;13.428;2024-02-23T03:17:19;9.60;84.80
84012;DHT22;74081;52.490;13.428;2024-02-23T03:19:46;9.60;84.80
84012;DHT22;74081;52.490;13.428;2024-02-23T03:22:13;9.60;84.80
84012;DHT22;74081;52.490;13.428;2024-02-23T03:24:39;9.60;84.80
84012;DHT22;74081;52.490;13.428;2024-02-23T03:27:06;9.60;84.80
84012;DHT22;74081;52.490;13.428;2024-02-23T03:29:33;9.50;84.80
84012;DHT22;74081;52.490;13.428;2024-02-23T03:32:00;9.40;84.80
84012;DHT22;74081;52.490;13.428;2024-02-23T03:34:28;9.40;84.80
84012;DHT22;74081;52.490;13.428;2024-02-23T03:36:54;9.40;84.80
84012;DHT22;74081;52.490;13.428;2024-02-23T03:39:21;9.40;84.80
84012;DHT22;74081;52.490;13.428;2024-02-23T03:41:47;9.40;84.80
84012;DHT22;74081;52.490;13.428;2024-02-23T03:44:14;9.30;84.80
84012;DHT22;74081;52.490;13.428;2024-02-23T03:46:41;9.20;84.80
84012;DHT22;74081;52.490;13.428;2024-02-23T03:49:08;9.20;84.80
84012;DHT22;74081;52.490;13.428;2024-02-23T03:51:35;9.20;84.80
84012;DHT22;74081;52.490;13.428;2024-02-23T03:54:06;9.10;84.80
84012;DHT22;74081;52.490;13.428;2024-02-23T03:56:39;9.10;84.80
84012;DHT22;74081;52.490;13.428;2024-02-23T03:59:07;9.10;84.80
84012;DHT22;74081;52.490;13.428;2024-02-23T04:01:37;9.20;84.80
84012;DHT22;74081;52.490;13.428;2024-02-23T04:04:04;9.30;84.80
84012;DHT22;74081;52.490;13.428;2024-02-23T04:06:31;9.30;84.80
84012;DHT22;74081;52.490;13.428;2024-02-23T04:08:58;9.30;84.80
84012;DHT22;74081;52.490;13.428;2024-02-23T04:11:25;9.20;84.80
84012;DHT22;74081;52.490;13.428;2024-02-23T04:13:52;9.20;84.80
84012;DHT22;74081;52.490;13.428;2024-02-23T04:16:22;9.10;84.80
84012;DHT22;74081;52.490;13.428;2024-02-23T04:18:48;9.10;84.80
84012;DHT22;74081;52.490;13.428;2024-02-23T04:21:16;9.10;84.80
84012;DHT22;74081;52.490;13.428;2024-02-23T04:23:43;9.10;84.80
84012;DHT22;74081;52.490;13.428;2024-02-23T04:26:09;9.10;84.80
84012;DHT22;74081;52.490;13.428;2024-02-23T04:28:39;9.10;84.80
84012;DHT22;74081;52.490;13.428;2024-02-23T04:31:07;9.00;84.80
84012;DHT22;74081;52.490;13.428;2024-02-23T04:33:37;9.00;84.80
84012;DHT22;74081;52.490;13.428;2024-02-23T04:36:05;9.00;84.80
84012;DHT22;74081;52.490;13.428;2024-02-23T04:38:32;8.90;84.80
84012;DHT22;74081;52.490;13.428;2024-02-23T04:41:01;8.90;84.80
84012;DHT22;74081;52.490;13.428;2024-02-23T04:43:29;8.80;84.80
84012;DHT22;74081;52.490;13.428;2024-02-23T04:45:56;8.80;84.80
84012;DHT22;74081;52.490;13.428;2024-02-23T04:48:22;8.80;84.80
84012;DHT22;74081;52.490;13.428;2024-02-23T04:50:49;8.90;84.80
84012;DHT22;74081;52.490;13.428;2024-02-23T04:53:16;9.00;84.80
84012;DHT22;74081;52.490;13.428;2024-02-23T04:55:43;9.00;84.80
84012;DHT22;74081;52.490;13.428;2024-02-23T04:58:10;9.00;84.80
84012;DHT22;74081;52.490;13.428;2024-02-23T05:00:38;9.00;84.80
84012;DHT22;74081;52.490;13.428;2024-02-23T05:03:05;9.00;84.80
84012;DHT22;74081;52.490;13.428;2024-02-23T05:05:37;9.00;84.80
84012;DHT22;74081;52.490;13.428;2024-02-23T05:08:04;8.90;84.80
84012;DHT22;74081;52.490;13.428;2024-02-23T05:10:31;8.90;84.80
84012;DHT22;74081;52.490;13.428;2024-02-23T05:12:58;9.10;84.80
84012;DHT22;74081;52.490;13.428;2024-02-23T05:15:24;9.10;84.80
84012;DHT22;74081;52.490;13.428;2024-02-23T05:17:51;9.10;84.80
84012;DHT22;74081;52.490;13.428;2024-02-23T05:20:18;9.10;84.80
84012;DHT22;74081;52.490;13.428;2024-02-23T05:22:45;9.10;84.80
84012;DHT22;74081;52.490;13.428;2024-02-23T05:25:12;9.10;84.80
84012;DHT22;74081;52.490;13.428;2024-02-23T05:27:39;9.10;84.80
84012;DHT22;74081;52.490;13.428;2024-02-23T05:30:05;9.00;84.80
84012;DHT22;74081;52.490;13.428;2024-02-23T05:32:33;9.00;84.80
84012;DHT22;74081;52.490;13.428;2024-02-23T05:35:00;9.00;84.80
84012;DHT22;74081;52.490;13.428;2024-02-23T05:37:28;8.90;84.80
84012;DHT22;74081;52.490;13.428;2024-02-23T05:39:55;8.70;84.80
84012;DHT22;74081;52.490;13.428;2024-02-23T05:42:21;8.50;84.80
84012;DHT22;74081;52.490;13.428;2024-02-23T05:44:48;8.40;84.80
84012;DHT22;74081;52.490;13.428;2024-02-23T05:47:15;8.30;84.80
84012;DHT22;74081;52.490;13.428;2024-02-23T05:49:42;8.20;84.80
84012;DHT22;74081;52.490;13.428;2024-02-23T05:52:09;8.20;84.80
84012;DHT22;74081;52.490;13.428;2024-02-23T05:54:36;8.10;84.80
84012;DHT22;74081;52.490;13.428;2024-02-23T05:57:02;8.10;84.80
84012;DHT22;74081;52.490;13.428;2024-02-23T05:59:29;8.00;84.80
84012;DHT22;74081;52.490;13.428;2024-02-23T06:01:56;8.00;84.80
84012;DHT22;74081;52.490;13.428;2024-02-23T06:04:24;8.00;84.80
84012;DHT22;74081;52.490;13.428;2024-02-23T06:06:51;8.00;84.80
84012;DHT22;74081;52.490;13.428;2024-02-23T06:09:18;8.00;84.80
84012;DHT22;74081;52.490;13.428;2024-02-23T06:11:45;8.00;84.80
84012;DHT22;74081;52.490;13.428;2024-02-23T06:14:13;8.00;84.80
84012;DHT22;74081;52.490;13.428;2024-02-23T06:16:40;8.10;84.80
84012;DHT22;74081;52.490;13.428;2024-02-23T06:19:07;8.10;84.80
84012;DHT22;74081;52.490;13.428;2024-02-23T06:21:34;8.10;84.80
84012;DHT22;74081;52.490;13.428;2024-02-23T06:24:02;8.20;84.80
84012;DHT22;74081;52.490;13.428;2024-02-23T06:26:29;8.20;84.80
84012;DHT22;74081;52.490;13.428;2024-02-23T06:28:56;8.10;84.80
84012;DHT22;74081;52.490;13.428;2024-02-23T06:31:23;8.10;84.80
84012;DHT22;74081;52.490;13.428;2024-02-23T06:33:50;8.10;84.80
84012;DHT22;74081;52.490;13.428;2024-02-23T06:36:18;8.00;84.80
84012;DHT22;74081;52.490;13.428;2024-02-23T06:38:45;8.00;84.80
84012;DHT22;74081;52.490;13.428;2024-02-23T06:41:12;8.00;84.80
84012;DHT22;74081;52.490;13.428;2024-02-23T06:43:39;8.00;84.80
84012;DHT22;74081;52.490;13.428;2024-02-23T06:46:06;8.00;84.80
84012;DHT22;74081;52.490;13.428;2024-02-23T06:48:34;8.20;84.80
84012;DHT22;74081;52.490;13.428;2024-02-23T06:51:01;8.30;84.80
84012;DHT22;74081;52.490;13.428;2024-02-23T06:53:29;8.20;84.80
84012;DHT22;74081;52.490;13.428;2024-02-23T06:55:56;8.20;84.80
84012;DHT22;74081;52.490;13.428;2024-02-23T06:58:22;8.20;84.80
84012;DHT22;74081;52.490;13.428;2024-02-23T07:00:49;8.20;84.80
84012;DHT22;74081;52.490;13.428;2024-02-23T07:03:16;8.10;84.80
84012;DHT22;74081;52.490;13.428;2024-02-23T07:05:43;8.10;84.80
84012;DHT22;74081;52.490;13.428;2024-02-23T07:08:10;8.20;84.80
84012;DHT22;74081;52.490;13.428;2024-02-23T07:10:37;8.20;84.80
84012;DHT22;74081;52.490;13.428;2024-02-23T07:13:04;8.30;84.80
84012;DHT22;74081;52.490;13.428;2024-02-23T07:15:33;8.50;84.80
84012;DHT22;74081;52.490;13.428;2024-02-23T07:17:59;8.60;84.80
84012;DHT22;74081;52.490;13.428;2024-02-23T07:20:26;8.70;84.80
84012;DHT22;74081;52.490;13.428;2024-02-23T07:22:53;8.70;84.80
84012;DHT22;74081;52.490;13.428;2024-02-23T07:25:20;8.70;84.80
84012;DHT22;74081;52.490;13.428;2024-02-23T07:27:47;8.60;84.80
84012;DHT22;74081;52.490;13.428;2024-02-23T07:30:17;8.70;84.80
84012;DHT22;74081;52.490;13.428;2024-02-23T07:32:44;8.80;84.80
84012;DHT22;74081;52.490;13.428;2024-02-23T07:35:15;8.80;84.80
84012;DHT22;74081;52.490;13.428;2024-02-23T07:37:42;8.80;84.80
84012;DHT22;74081;52.490;13.428;2024-02-23T07:40:09;8.90;84.80
84012;DHT22;74081;52.490;13.428;2024-02-23T07:42:36;8.90;84.80
84012;DHT22;74081;52.490;13.428;2024-02-23T07:45:03;8.90;84.80
84012;DHT22;74081;52.490;13.428;2024-02-23T07:47:30;8.80;84.80
84012;DHT22;74081;52.490;13.428;2024-02-23T07:49:58;8.80;84.80
84012;DHT22;74081;52.490;13.428;2024-02-23T07:52:25;8.80;84.80
84012;DHT22;74081;52.490;13.428;2024-02-23T07:54:52;8.90;84.80
84012;DHT22;74081;52.490;13.428;2024-02-23T07:57:19;8.90;84.80
84012;DHT22;74081;52.490;13.428;2024-02-23T07:59:46;8.90;84.80
84012;DHT22;74081;52.490;13.428;2024-02-23T08:02:13;9.00;84.80
84012;DHT22;74081;52.490;13.428;2024-02-23T08:04:41;9.00;84.80
84012;DHT22;74081;52.490;13.428;2024-02-23T08:07:09;8.90;84.80
84012;DHT22;74081;52.490;13.428;2024-02-23T08:09:35;9.00;84.80
84012;DHT22;74081;52.490;13.428;2024-02-23T08:12:03;9.00;84.80
84012;DHT22;74081;52.490;13.428;2024-02-23T08:14:29;9.00;84.80
84012;DHT22;74081;52.490;13.428;2024-02-23T08:16:56;9.20;84.80
84012;DHT22;74081;52.490;13.428;2024-02-23T08:19:23;9.40;84.80
84012;DHT22;74081;52.490;13.428;2024-02-23T08:21:50;9.60;84.80
84012;DHT22;74081;52.490;13.428;2024-02-23T08:24:17;9.60;84.80
84012;DHT22;74081;52.490;13.428;2024-02-23T08:26:44;9.60;84.80
84012;DHT22;74081;52.490;13.428;2024-02-23T08:29:11;9.60;84.80
84012;DHT22;74081;52.490;13.428;2024-02-23T08:31:38;9.50;84.80
84012;DHT22;74081;52.490;13.428;2024-02-23T08:34:08;9.50;84.80
84012;DHT22;74081;52.490;13.428;2024-02-23T08:36:34;9.40;84.80
84012;DHT22;74081;52.490;13.428;2024-02-23T08:39:01;9.50;84.80
84012;DHT22;74081;52.490;13.428;2024-02-23T08:41:29;9.50;84.80
84012;DHT22;74081;52.490;13.428;2024-02-23T08:43:56;9.40;84.80
84012;DHT22;74081;52.490;13.428;2024-02-23T08:46:23;9.50;84.80
84012;DHT22;74081;52.490;13.428;2024-02-23T08:48:50;9.60;84.80
84012;DHT22;74081;52.490;13.428;2024-02-23T08:51:17;9.70;84.80
84012;DHT22;74081;52.490;13.428;2024-02-23T08:53:44;9.80;84.80
84012;DHT22;74081;52.490;13.428;2024-02-23T08:56:12;9.80;84.80
84012;DHT22;74081;52.490;13.428;2024-02-23T08:58:39;9.80;84.80
84012;DHT22;74081;52.490;13.428;2024-02-23T09:01:05;9.80;84.80
84012;DHT22;74081;52.490;13.428;2024-02-23T09:03:33;9.80;84.80
84012;DHT22;74081;52.490;13.428;2024-02-23T09:05:59;9.80;84.80
84012;DHT22;74081;52.490;13.428;2024-02-23T09:08:26;9.90;84.80
84012;DHT22;74081;52.490;13.428;2024-02-23T09:10:54;9.90;84.80
84012;DHT22;74081;52.490;13.428;2024-02-23T09:13:21;9.90;84.80
84012;DHT22;74081;52.490;13.428;2024-02-23T09:15:47;10.00;84.80
84012;DHT22;74081;52.490;13.428;2024-02-23T09:18:14;10.20;84.80
84012;DHT22;74081;52.490;13.428;2024-02-23T09:20:41;10.20;84.80
84012;DHT22;74081;52.490;13.428;2024-02-23T09:23:08;10.40;84.80
84012;DHT22;74081;52.490;13.428;2024-02-23T09:25:36;10.40;84.80
84012;DHT22;74081;52.490;13.428;2024-02-23T09:28:03;10.30;84.80
84012;DHT22;74081;52.490;13.428;2024-02-23T09:30:29;10.20;84.80
84012;DHT22;74081;52.490;13.428;2024-02-23T09:32:56;10.20;84.80
84012;DHT22;74081;52.490;13.428;2024-02-23T09:35:23;10.20;84.80
84012;DHT22;74081;52.490;13.428;2024-02-23T09:37:50;10.20;84.80
84012;DHT22;74081;52.490;13.428;2024-02-23T09:40:17;10.40;84.80
84012;DHT22;74081;52.490;13.428;2024-02-23T09:42:46;10.40;84.80
84012;DHT22;74081;52.490;13.428;2024-02-23T09:45:15;10.40;84.80
84012;DHT22;74081;52.490;13.428;2024-02-23T09:47:42;10.60;84.80
84012;DHT22;74081;52.490;13.428;2024-02-23T09:50:10;10.60;84.80
84012;DHT22;74081;52.490;13.428;2024-02-23T09:52:38;10.60;84.80
84012;DHT22;74081;52.490;13.428;2024-02-23T09:55:05;10.60;84.80
84012;DHT22;74081;52.490;13.428;2024-02-23T09:57:32;10.50;84.80
84012;DHT22;74081;52.490;13.428;2024-02-23T09:59:59;10.30;84.80
84012;DHT22;74081;52.490;13.428;2024-02-23T10:02:26;10.20;84.80
84012;DHT22;74081;52.490;13.428;2024-02-23T10:04:53;10.30;84.80
84012;DHT22;74081;52.490;13.428;2024-02-23T10:07:21;10.30;84.80
84012;DHT22;74081;52.490;13.428;2024-02-23T10:09:48;10.30;84.80
84012;DHT22;74081;52.490;13.428;2024-02-23T10:12:15;10.40;84.80
84012;DHT22;74081;52.490;13.428;2024-02-23T10:14:43;10.40;84.80
84012;DHT22;74081;52.490;13.428;2024-02-23T10:17:10;10.40;84.80
84012;DHT22;74081;52.490;13.428;2024-02-23T10:19:36;10.50;84.80
84012;DHT22;74081;52.490;13.428;2024-02-23T10:22:04;10.50;84.80
84012;DHT22;74081;52.490;13.428;2024-02-23T10:24:31;10.50;84.80
84012;DHT22;74081;52.490;13.428;2024-02-23T10:26:58;10.60;84.80
84012;DHT22;74081;52.490;13.428;2024-02-23T10:29:25;10.60;84.80
84012;DHT22;74081;52.490;13.428;2024-02-23T10:31:52;10.70;84.80
84012;DHT22;74081;52.490;13.428;2024-02-23T10:34:23;10.90;84.80
84012;DHT22;74081;52.490;13.428;2024-02-23T10:36:50;10.90;84.80
84012;DHT22;74081;52.490;13.428;2024-02-23T10:39:18;10.80;84.80
84012;DHT22;74081;52.490;13.428;2024-02-23T10:42:00;10.80;84.80
84012;DHT22;74081;52.490;13.428;2024-02-23T10:44:28;10.80;84.80
84012;DHT22;74081;52.490;13.428;2024-02-23T10:46:58;10.60;84.80
84012;DHT22;74081;52.490;13.428;2024-02-23T10:49:25;10.60;84.80
84012;DHT22;74081;52.490;13.428;2024-02-23T10:51:55;10.80;84.80
84012;DHT22;74081;52.490;13.428;2024-02-23T10:54:23;10.80;84.80
84012;DHT22;74081;52.490;13.428;2024-02-23T10:56:50;10.80;84.80
84012;DHT22;74081;52.490;13.428;2024-02-23T10:59:17;10.90;84.80
84012;DHT22;74081;52.490;13.428;2024-02-23T11:01:49;10.80;84.80
84012;DHT22;74081;52.490;13.428;2024-02-23T11:04:16;10.90;84.80
84012;DHT22;74081;52.490;13.428;2024-02-23T11:06:50;10.60;84.80
84012;DHT22;74081;52.490;13.428;2024-02-23T11:09:20;10.70;84.80
84012;DHT22;74081;52.490;13.428;2024-02-23T11:14:31;10.80;84.80
84012;DHT22;74081;52.490;13.428;2024-02-23T11:16:59;10.70;84.80
84012;DHT22;74081;52.490;13.428;2024-02-23T11:19:37;10.70;84.80
84012;DHT22;74081;52.490;13.428;2024-02-23T11:22:05;10.60;84.80
84012;DHT22;74081;52.490;13.428;2024-02-23T11:24:44;10.60;84.80
84012;DHT22;74081;52.490;13.428;2024-02-23T11:27:17;10.50;84.80
84012;DHT22;74081;52.490;13.428;2024-02-23T11:29:45;10.50;84.80
84012;DHT22;74081;52.490;13.428;2024-02-23T11:32:15;10.60;84.80
84012;DHT22;74081;52.490;13.428;2024-02-23T11:34:54;10.70;84.80
84012;DHT22;74081;52.490;13.428;2024-02-23T11:37:22;10.70;84.80
84012;DHT22;74081;52.490;13.428;2024-02-23T11:39:49;10.70;84.80
84012;DHT22;74081;52.490;13.428;2024-02-23T11:42:16;10.80;84.80
84012;DHT22;74081;52.490;13.428;2024-02-23T11:44:44;10.80;84.80
84012;DHT22;74081;52.490;13.428;2024-02-23T11:47:11;10.80;84.80
84012;DHT22;74081;52.490;13.428;2024-02-23T11:49:38;10.80;84.80
84012;DHT22;74081;52.490;13.428;2024-02-23T11:52:04;10.80;84.80
84012;DHT22;74081;52.490;13.428;2024-02-23T11:54:31;10.80;84.80
84012;DHT22;74081;52.490;13.428;2024-02-23T11:56:58;10.80;84.80
84012;DHT22;74081;52.490;13.428;2024-02-23T11:59:26;10.80;84.80
84012;DHT22;74081;52.490;13.428;2024-02-23T12:01:53;10.80;84.80
84012;DHT22;74081;52.490;13.428;2024-02-23T12:04:20;10.90;84.80
84012;DHT22;74081;52.490;13.428;2024-02-23T12:06:46;10.90;84.80
84012;DHT22;74081;52.490;13.428;2024-02-23T12:09:14;11.00;84.80
84012;DHT22;74081;52.490;13.428;2024-02-23T12:11:41;11.00;84.80
84012;DHT22;74081;52.490;13.428;2024-02-23T12:14:08;11.00;84.80
84012;DHT22;74081;52.490;13.428;2024-02-23T12:16:35;11.00;84.80
84012;DHT22;74081;52.490;13.428;2024-02-23T12:19:05;11.00;84.80
84012;DHT22;74081;52.490;13.428;2024-02-23T12:21:34;11.00;84.80
84012;DHT22;74081;52.490;13.428;2024-02-23T12:24:05;11.10;84.80
84012;DHT22;74081;52.490;13.428;2024-02-23T12:26:34;11.10;84.80
84012;DHT22;74081;52.490;13.428;2024-02-23T12:29:01;11.10;84.80
84012;DHT22;74081;52.490;13.428;2024-02-23T12:31:31;11.10;84.80
84012;DHT22;74081;52.490;13.428;2024-02-23T12:33:57;11.00;84.80
84012;DHT22;74081;52.490;13.428;2024-02-23T12:36:24;11.00;84.80
84012;DHT22;74081;52.490;13.428;2024-02-23T12:38:51;11.00;84.80
84012;DHT22;74081;52.490;13.428;2024-02-23T12:41:18;11.10;84.80
84012;DHT22;74081;52.490;13.428;2024-02-23T12:43:45;11.20;84.80
84012;DHT22;74081;52.490;13.428;2024-02-23T12:46:14;11.20;84.80
84012;DHT22;74081;52.490;13.428;2024-02-23T12:48:40;11.10;84.80
84012;DHT22;74081;52.490;13.428;2024-02-23T12:51:09;11.10;84.80
84012;DHT22;74081;52.490;13.428;2024-02-23T12:53:37;11.00;84.80
84012;DHT22;74081;52.490;13.428;2024-02-23T12:56:08;11.10;84.80
84012;DHT22;74081;52.490;13.428;2024-02-23T12:58:35;11.00;84.80
84012;DHT22;74081;52.490;13.428;2024-02-23T13:01:03;11.00;84.80
84012;DHT22;74081;52.490;13.428;2024-02-23T13:03:30;10.80;84.80
84012;DHT22;74081;52.490;13.428;2024-02-23T13:05:57;10.80;84.80
84012;DHT22;74081;52.490;13.428;2024-02-23T13:08:24;10.80;84.80
84012;DHT22;74081;52.490;13.428;2024-02-23T13:10:52;10.90;84.80
84012;DHT22;74081;52.490;13.428;2024-02-23T13:13:21;11.00;84.80
84012;DHT22;74081;52.490;13.428;2024-02-23T13:15:49;11.00;84.80
84012;DHT22;74081;52.490;13.428;2024-02-23T13:18:15;11.00;84.80
84012;DHT22;74081;52.490;13.428;2024-02-23T13:20:43;11.00;84.80
84012;DHT22;74081;52.490;13.428;2024-02-23T13:23:10;11.00;84.80
84012;DHT22;74081;52.490;13.428;2024-02-23T13:25:39;10.90;84.80
84012;DHT22;74081;52.490;13.428;2024-02-23T13:28:06;11.00;84.80
84012;DHT22;74081;52.490;13.428;2024-02-23T13:30:34;11.00;84.80
84012;DHT22;74081;52.490;13.428;2024-02-23T13:33:01;11.00;84.80
84012;DHT22;74081;52.490;13.428;2024-02-23T13:35:28;10.90;84.80
84012;DHT22;74081;52.490;13.428;2024-02-23T13:37:55;10.80;84.80
84012;DHT22;74081;52.490;13.428;2024-02-23T13:40:24;10.70;84.80
84012;DHT22;74081;52.490;13.428;2024-02-23T13:42:50;10.70;84.80
84012;DHT22;74081;52.490;13.428;2024-02-23T13:45:19;10.70;84.80
84012;DHT22;74081;52.490;13.428;2024-02-23T13:47:59;10.60;84.80
84012;DHT22;74081;52.490;13.428;2024-02-23T13:50:27;10.60;84.80
84012;DHT22;74081;52.490;13.428;2024-02-23T13:52:54;10.60;84.80
84012;DHT22;74081;52.490;13.428;2024-02-23T13:55:21;10.60;84.80
84012;DHT22;74081;52.490;13.428;2024-02-23T13:57:48;10.50;84.80
84012;DHT22;74081;52.490;13.428;2024-02-23T14:00:16;10.50;84.80
84012;DHT22;74081;52.490;13.428;2024-02-23T14:02:43;10.60;84.80
84012;DHT22;74081;52.490;13.428;2024-02-23T14:05:12;10.60;84.80
84012;DHT22;74081;52.490;13.428;2024-02-23T14:07:39;10.60;84.80
84012;DHT22;74081;52.490;13.428;2024-02-23T14:10:06;10.50;84.80
84012;DHT22;74081;52.490;13.428;2024-02-23T14:12:33;10.50;84.80
84012;DHT22;74081;52.490;13.428;2024-02-23T14:15:00;10.60;84.80
84012;DHT22;74081;52.490;13.428;2024-02-23T14:17:27;10.60;84.80
84012;DHT22;74081;52.490;13.428;2024-02-23T14:19:54;10.60;84.80
84012;DHT22;74081;52.490;13.428;2024-02-23T14:22:22;10.60;84.80
84012;DHT22;74081;52.490;13.428;2024-02-23T14:24:48;10.40;84.80
84012;DHT22;74081;52.490;13.428;2024-02-23T14:27:15;10.30;84.80
84012;DHT22;74081;52.490;13.428;2024-02-23T14:29:42;10.20;84.80
84012;DHT22;74081;52.490;13.428;2024-02-23T14:32:09;10.10;84.80
84012;DHT22;74081;52.490;13.428;2024-02-23T14:34:36;10.10;84.80
84012;DHT22;74081;52.490;13.428;2024-02-23T14:37:02;10.10;84.80
84012;DHT22;74081;52.490;13.428;2024-02-23T14:39:29;10.10;84.80
84012;DHT22;74081;52.490;13.428;2024-02-23T14:41:56;10.00;84.80
84012;DHT22;74081;52.490;13.428;2024-02-23T14:44:24;10.00;84.80
84012;DHT22;74081;52.490;13.428;2024-02-23T14:46:50;10.00;84.80
84012;DHT22;74081;52.490;13.428;2024-02-23T14:49:17;10.00;84.80
84012;DHT22;74081;52.490;13.428;2024-02-23T14:51:44;10.00;84.80
84012;DHT22;74081;52.490;13.428;2024-02-23T14:54:12;10.00;84.80
84012;DHT22;74081;52.490;13.428;2024-02-23T14:56:39;10.00;84.80
84012;DHT22;74081;52.490;13.428;2024-02-23T14:59:07;9.90;84.80
84012;DHT22;74081;52.490;13.428;2024-02-23T15:01:37;10.00;84.80
84012;DHT22;74081;52.490;13.428;2024-02-23T15:04:04;10.00;84.80
84012;DHT22;74081;52.490;13.428;2024-02-23T15:06:32;10.00;84.80
84012;DHT22;74081;52.490;13.428;2024-02-23T15:08:59;10.00;84.80
84012;DHT22;74081;52.490;13.428;2024-02-23T15:11:27;10.00;84.80
84012;DHT22;74081;52.490;13.428;2024-02-23T15:13:54;10.00;84.80
84012;DHT22;74081;52.490;13.428;2024-02-23T15:16:24;10.00;84.80
84012;DHT22;74081;52.490;13.428;2024-02-23T15:18:52;10.00;84.80
84012;DHT22;74081;52.490;13.428;2024-02-23T15:21:19;10.00;84.80
84012;DHT22;74081;52.490;13.428;2024-02-23T15:23:47;9.90;84.80
84012;DHT22;74081;52.490;13.428;2024-02-23T15:26:14;9.90;84.80